x

Central Aleutians 230nm Sw Dutch Harbor (46072) Wave Buoy

3:50 - Tue 30th Jun 2015 All times are UTC.

  • Sig Wave height 6.6ft
  • Peak Period 9s
  • Average Period 6s
  • Wind
    18mph, 20mph gusts
  • Sea Temp 49°f
  • Luft Temp 48°f
  • Sea Pressure 1016.5mb

More Historic Weather Station data

Upgrade to MSW Pro to gain access to the past 30 days of data for over 8000 Wavebouys and Weather Stations around the globe.

Join Pro

Comparision Forecast

View Surf forecast
   
Di 06/30 3:50 6.5ft 9s 6s 18 20 mph 1016.5mb 49f 48f
2:50 7ft 10s 6s 18 20 mph 1016.7mb 49f 48f
1:50 6.5ft 10s 6s 18 22 mph 1016.8mb 49f 48f
12:50 7ft 10s 6s 18 20 mph 1017mb 49f 48f
11:50 7ft 9s 6s 18 20 mph 1016.7mb 49f 49f
10:50 6.5ft 8s 6s 18 22 mph 1017.1mb 49f 48f
9:50 7ft 9s 6s 16 20 mph 1017.2mb 49f 48f
8:50 6.5ft 9s 6s 18 20 mph 1016.5mb 49f 49f
7:50 6ft 7s 6s 13 18 mph 1016.4mb 49f 49f
6:50 5.5ft 10s 6s 16 18 mph 1015.9mb 49f 49f
5:50 5ft 9s 5s 16 18 mph 1015.4mb 49f 49f
4:50 5ft 9s 5s 16 22 mph 1015mb 49f 49f
3:50 5ft 9s 5s 18 22 mph 1015mb 48f 49f
2:50 5ft 8s 5s 16 20 mph 1014.6mb 48f 49f
1:50 4.5ft 7s 5s 18 20 mph 1014.2mb 48f 49f
12:50 4.5ft 7s 5s 16 18 mph 1014mb 48f 48f
Mo 06/29 11:50 4.5ft 8s 5s 16 18 mph 1013.7mb 48f 48f
10:50 4.5ft 7s 4s 18 20 mph 1013.2mb 48f 48f
9:50 4.5ft 7s 5s 18 20 mph 1013mb 49f 48f
8:50 4.5ft 8s 4s 16 18 mph 1013mb 48f 48f
7:50 4ft 7s 4s 16 20 mph 1012.6mb 48f 47f
6:50 4ft 7s 4s 16 20 mph 1012.2mb 48f 47f
4:50 3.5ft 6s 5s 13 18 mph 1011.3mb 48f 47f
3:50 3ft 8s 5s 16 20 mph 1011mb 48f 47f
2:50 3.5ft 8s 4s 16 18 mph 1010.8mb 49f 47f
1:50 3ft 8s 4s 18 20 mph 1010.6mb 49f 47f
12:50 3ft 11s 5s 13 16 mph 1010.8mb 49f 47f
11:50 3ft 11s 5s 16 18 mph 1010.8mb 49f 47f
10:50 3ft 7s 4s 13 18 mph 1010.9mb 49f 46f
9:50 3ft 8s 5s 11 16 mph 1010.8mb 49f 46f
8:50 3.5ft 7s 6s 11 16 mph 1010.9mb 49f 46f
7:50 3.5ft 7s 6s 11 16 mph 1011mb 49f 46f
6:50 3.5ft 7s 7s 9 13 mph 1011mb 49f 46f
5:50 3.5ft 7s 7s 9 13 mph 1010.9mb 49f 46f
4:50 3.5ft 8s 7s 9 11 mph 1011.1mb 49f 45f
3:50 3.5ft 8s 7s 11
mph
1011.6mb 49f 45f
2:50 3ft 8s 7s 9 11 mph 1012.2mb 49f 46f
1:50 3ft 8s 7s 9 11 mph 1012.8mb 49f 45f
12:50 3ft 9s 6s 9 11 mph 1013.4mb 49f 45f
So 06/28 11:50 3.5ft 8s 6s 7 9 mph 1014.1mb 49f 44f
10:50 3.5ft 9s 6s 7 9 mph 1014.4mb 49f 44f
9:50 4ft 9s 6s 7 9 mph 1014.7mb 49f 44f
8:50 4.5ft 9s 6s 4 7 mph 1015mb 48f 44f
7:50 4.5ft 8s 6s 7 11 mph 1015.8mb 48f 44f
6:50 5ft 7s 6s 9
mph
1016.2mb 48f 43f
5:50 5ft 7s 6s 9 16 mph 1016.6mb 48f 43f
4:50 4.5ft 8s 6s 11 13 mph 1016.9mb 48f 43f
3:50 5ft 8s 6s 9 13 mph 1017.2mb 48f 43f
2:50 5ft 8s 6s 11 16 mph 1017.3mb 48f 43f
1:50 5ft 8s 6s 11 16 mph 1017.8mb 48f 44f
12:50 5.5ft 8s 6s 13 18 mph 1018.3mb 48f 44f
11:50 5.5ft 8s 5s 13 18 mph 1018.7mb 48f 44f
10:50 5.5ft 8s 5s 13 18 mph 1019mb 48f 44f
9:50 6ft 9s 6s 13 18 mph 1019.5mb 48f 45f
8:50 6ft 6s 5s 13 18 mph 1019.7mb 48f 45f
7:50 6ft 8s 5s 13 18 mph 1020mb 48f 45f
6:50 6ft 8s 6s 13 16 mph 1020.2mb 48f 45f
5:50 5ft 8s 6s 11 13 mph 1020.3mb 47f 45f
4:50 5ft 8s 5s 11 13 mph 1020.7mb 47f 45f
3:50 4.5ft 7s 5s 13 16 mph 1021mb 47f 45f
2:50 4.5ft 7s 5s 11 16 mph 1021.3mb 47f 45f
1:50 4.5ft 8s 5s 13 16 mph 1021.5mb 47f 45f
12:50 4.5ft 5s 5s 13 16 mph 1021.7mb 47f 45f
Sa 06/27 11:50 4.5ft 8s 5s 16 18 mph 1022.1mb 47f 45f
10:50 4.5ft 5s 5s 16 18 mph 1022.3mb 47f 44f
9:50 4ft 6s 4s 16 18 mph 1022.2mb 47f 44f
8:50 4.5ft 5s 5s 16 18 mph 1022.4mb 48f 44f
7:50 4.5ft 6s 5s 18 20 mph 1022.6mb 48f 43f
6:50 5ft 6s 5s 18 22 mph 1022.8mb 48f 44f
5:50 5ft 5s 5s 22 25 mph 1022.8mb 48f 44f
4:50 4.5ft 5s 5s 18 22 mph 1022.6mb 48f 44f
3:50 4.5ft 5s 4s 16 20 mph 1022.5mb 48f 43f
2:50 4.5ft 5s 5s 16 20 mph 1022.7mb 48f 44f
1:50 4.5ft 5s 4s 20 22 mph 1022.7mb 48f 44f
12:50 3.5ft 8s 4s 16 20 mph 1023mb 48f 45f
11:50 3.5ft 7s 5s 13 18 mph 1023.3mb 48f 44f
10:50 3.5ft 8s 5s 11 13 mph 1023.3mb 49f 45f
9:50 3.5ft 8s 4s 16 18 mph 1023.3mb 49f 46f
8:50 3.5ft 6s 5s 18 20 mph 1023.5mb 49f 46f
7:50 3.5ft 6s 5s 16 18 mph 1023.2mb 49f 46f
6:50 4ft 8s 5s 18 20 mph 1022.9mb 49f 46f
5:50 4ft 6s 5s 20 22 mph 1022.8mb 49f 45f
4:50 4ft 7s 5s 18 22 mph 1022.7mb 49f 45f
3:50 3.5ft 7s 5s 16 18 mph 1022.8mb 49f 46f
2:50 3.5ft 8s 5s 13 16 mph 1022.8mb 48f 45f
1:50 3.5ft 8s 5s 16 20 mph 1022.8mb 48f 45f
12:50 3.5ft 6s 4s 16 18 mph 1022.9mb 48f 45f
Fr 06/26 11:50 3ft 8s 4s 13 18 mph 1023mb 48f 44f
10:50 3.5ft 7s 5s 16 20 mph 1023.1mb 47f 44f
9:50 3.5ft 7s 5s 18 22 mph 1022.7mb 47f 44f
8:50 4ft 7s 5s 18 20 mph 1022.1mb 47f 44f
7:50 4.5ft 7s 5s 16 18 mph 1022.3mb 47f 43f
6:50 4.5ft 7s 4s 18 22 mph 1022.1mb 47f 44f
5:50 4.5ft 7s 4s 16 20 mph 1022mb 47f 43f